Main page
Satellite images 15-day forecastsClimateMarine weather Cyclones Lightning AirportsFAQ Newsletter About
Weather : Europe Africa North America South America Asia Australia-Oceania Others
Languages Contact

Belgrade, Serbia

Nikola Tesla

latitude: 44-49N, longitude: 020-17E, elevation: 96 m


METAR: LYBE 281730Z 10006KT CAVOK 07/03 Q1018 NOSIG
TAF: LYBE 281700Z 2818/2918 10007KT CAVOK TX12/2912Z TN06/2905Z

Time: 18:50 (17:50 UTC)

Current weather observation

The report was made 20 minutes ago, at 17:30 UTC
Wind 6 kt from the East
Temperature 7°C
Humidity 76%
Pressure 1018 hPa
Visibility 10 km or more
no clouds below 1500 m and no cumulonimbus

Change units

Forecast

The report was made 50 minutes ago, at 17:00 UTC
Forecast valid from 28 at 18 UTC to 29 at 18 UTC
Wind 7 kt from the East
Visibility 10 km or more
no clouds below 1500 m and no cumulonimbus
The information on this site is subject to a disclaimer
Weather : Europe Africa North America South America Asia Australia-Oceania Others
Satellite images 15-day forecastsClimateMarine weather Cyclones Lightning AirportsFAQ Languages Contact Newsletter About